Time;durP1;ratioP1;P1;durP2;ratioP2;P2;SDS_P1;SDS_P2;PMS_P1;PMS_P2;Temp;Humidity;BMP_temperature;BMP_pressure;BME280_temperature;BME280_humidity;BME280_pressure;Samples;Min_cycle;Max_cycle;Signal;HPM_P1;HPM_P2
2023/03/12 00:01:19;;;;;;;9.82;5.97;;;0.70;99.90;;;;;;5002039;28;20245;-85
2023/03/12 00:04:05;;;;;;;8.57;6.65;;;0.70;99.90;;;;;;5003700;28;20224;-88
2023/03/12 00:06:52;;;;;;;8.23;5.40;;;0.80;99.90;;;;;;5000662;28;20633;-87
2023/03/12 00:09:39;;;;;;;13.00;6.38;;;0.70;99.90;;;;;;5000941;28;20216;-87
2023/03/12 00:12:26;;;;;;;10.45;6.50;;;0.70;99.90;;;;;;5001570;28;20231;-87
2023/03/12 00:15:11;;;;;;;11.20;6.45;;;0.50;99.90;;;;;;5006844;28;20265;-87
2023/03/12 00:17:57;;;;;;;18.88;6.57;;;0.40;99.90;;;;;;5000506;28;20361;-88
2023/03/12 00:20:43;;;;;;;11.98;6.95;;;0.30;99.90;;;;;;5004594;28;20203;-87
2023/03/12 00:23:29;;;;;;;11.23;6.60;;;0.20;99.90;;;;;;4999251;28;20215;-87
2023/03/12 00:26:15;;;;;;;6.82;5.57;;;0.20;99.90;;;;;;5009996;28;20203;-87
2023/03/12 00:29:02;;;;;;;12.02;6.00;;;0.10;99.90;;;;;;5003784;28;20685;-87
2023/03/12 00:31:50;;;;;;;11.38;7.07;;;0.10;99.90;;;;;;5004526;28;20223;-86
2023/03/12 00:34:35;;;;;;;13.93;7.55;;;0.10;99.90;;;;;;5006265;28;20285;-87
2023/03/12 00:37:22;;;;;;;10.70;7.10;;;0.10;99.90;;;;;;5006223;28;20301;-87
2023/03/12 00:40:10;;;;;;;12.75;7.10;;;0.20;99.90;;;;;;5008047;28;20207;-86
2023/03/12 00:42:56;;;;;;;8.93;7.10;;;0.30;99.90;;;;;;4999406;28;20227;-87
2023/03/12 00:45:43;;;;;;;13.90;6.63;;;0.30;99.90;;;;;;5007759;28;20739;-87
2023/03/12 00:48:28;;;;;;;10.65;6.80;;;0.50;99.90;;;;;;5003523;28;20202;-87
2023/03/12 00:51:14;;;;;;;10.85;7.10;;;0.50;99.90;;;;;;5003158;28;20235;-87
2023/03/12 00:54:00;;;;;;;10.35;6.80;;;0.50;99.90;;;;;;5000211;28;20608;-87
2023/03/12 00:56:46;;;;;;;11.95;6.10;;;0.50;99.90;;;;;;5001772;28;20392;-88
2023/03/12 00:59:31;;;;;;;10.80;6.88;;;0.50;99.90;;;;;;5002726;28;20218;-87
2023/03/12 01:02:18;;;;;;;13.88;7.32;;;0.50;99.90;;;;;;5000718;28;20309;-87
2023/03/12 01:05:04;;;;;;;10.80;7.45;;;0.40;99.90;;;;;;5009756;28;20226;-88
2023/03/12 01:07:50;;;;;;;12.55;6.53;;;0.20;99.90;;;;;;5006616;28;20270;-87
2023/03/12 01:10:37;;;;;;;11.05;7.32;;;0.10;99.90;;;;;;5004400;28;20208;-87
2023/03/12 01:13:23;;;;;;;10.68;8.77;;;-0.10;99.90;;;;;;4999675;28;20347;-87
2023/03/12 01:16:11;;;;;;;11.73;8.10;;;-0.20;99.90;;;;;;5003689;28;20694;-87
2023/03/12 01:19:00;;;;;;;10.85;7.88;;;-0.10;99.90;;;;;;5005910;28;20219;-85
2023/03/12 01:21:46;;;;;;;10.00;7.38;;;-0.10;99.90;;;;;;5000910;28;20231;-86
2023/03/12 01:24:31;;;;;;;7.68;6.43;;;0.00;99.90;;;;;;5008892;28;20211;-87
2023/03/12 01:27:17;;;;;;;14.13;7.30;;;0.20;99.90;;;;;;5016923;28;20329;-87
2023/03/12 01:30:03;;;;;;;11.80;8.07;;;0.20;99.90;;;;;;4999979;28;20262;-87
2023/03/12 01:32:49;;;;;;;11.60;8.65;;;0.20;99.90;;;;;;4998177;28;20706;-87
2023/03/12 01:35:39;;;;;;;9.70;7.70;;;0.30;99.90;;;;;;5000652;28;20843;-86
2023/03/12 01:38:24;;;;;;;13.98;7.57;;;0.30;99.90;;;;;;5005107;28;20363;-86
2023/03/12 01:41:10;;;;;;;11.65;8.45;;;0.40;99.90;;;;;;4999868;28;20726;-86
2023/03/12 01:43:56;;;;;;;10.77;8.18;;;0.30;99.90;;;;;;5001373;28;20585;-87
2023/03/12 01:46:42;;;;;;;14.35;8.07;;;0.30;99.90;;;;;;5004403;28;20262;-86
2023/03/12 01:49:32;;;;;;;9.70;7.70;;;0.40;99.90;;;;;;5006118;28;20211;-86
2023/03/12 01:52:21;;;;;;;10.23;7.80;;;0.50;99.90;;;;;;5001492;28;20235;-88
2023/03/12 01:55:11;;;;;;;12.18;7.80;;;0.60;99.90;;;;;;5006937;28;20212;-87
2023/03/12 01:57:59;;;;;;;15.90;8.40;;;0.60;99.90;;;;;;5003603;28;20299;-85
2023/03/12 02:00:45;;;;;;;13.52;7.95;;;0.60;99.90;;;;;;5004292;28;20207;-86
2023/03/12 02:03:32;;;;;;;13.15;7.85;;;0.60;99.90;;;;;;5010525;28;20588;-86
2023/03/12 02:06:22;;;;;;;12.38;7.97;;;0.50;99.90;;;;;;5006902;28;20204;-86
2023/03/12 02:09:11;;;;;;;11.00;7.88;;;0.60;99.90;;;;;;5014792;28;20201;-87
2023/03/12 02:11:57;;;;;;;17.02;7.57;;;0.70;99.90;;;;;;5010646;28;20228;-87
2023/03/12 02:14:43;;;;;;;12.43;8.10;;;0.60;99.90;;;;;;5014649;28;20207;-87
2023/03/12 02:17:29;;;;;;;11.63;7.78;;;0.60;99.90;;;;;;5015663;28;20208;-86
2023/03/12 02:20:21;;;;;;;12.90;8.95;;;0.50;99.90;;;;;;5005870;28;20210;-87
2023/03/12 02:23:10;;;;;;;12.82;8.80;;;0.50;99.90;;;;;;5017962;28;20236;-87
2023/03/12 02:25:57;;;;;;;16.08;9.95;;;0.50;99.90;;;;;;5014534;28;20788;-86
2023/03/12 02:28:45;;;;;;;13.18;9.23;;;0.50;99.90;;;;;;5015303;28;20204;-86
2023/03/12 02:31:37;;;;;;;16.75;9.88;;;0.60;99.90;;;;;;5008320;28;20284;-87
2023/03/12 02:34:22;;;;;;;14.40;10.65;;;0.50;99.90;;;;;;5010896;28;20280;-87
2023/03/12 02:37:08;;;;;;;17.00;9.57;;;0.50;99.90;;;;;;5011456;28;20203;-86
2023/03/12 02:40:00;;;;;;;16.77;10.95;;;0.60;99.90;;;;;;5001127;28;20745;-87
2023/03/12 02:42:47;;;;;;;13.50;9.90;;;0.70;99.90;;;;;;5003061;28;20232;-87
2023/03/12 02:45:35;;;;;;;16.20;10.63;;;0.60;99.90;;;;;;5003072;28;20337;-87
2023/03/12 02:48:21;;;;;;;12.88;9.55;;;0.70;99.90;;;;;;5006766;28;20294;-87
2023/03/12 02:51:06;;;;;;;13.80;10.25;;;0.70;99.90;;;;;;5007509;28;20787;-87
2023/03/12 02:53:53;;;;;;;18.77;11.23;;;0.60;99.90;;;;;;5012044;28;20212;-86
2023/03/12 02:56:39;;;;;;;17.88;10.63;;;0.70;99.90;;;;;;5014453;28;20203;-87
2023/03/12 02:59:27;;;;;;;14.07;9.57;;;0.80;99.90;;;;;;5006929;28;20592;-87
2023/03/12 03:02:12;;;;;;;12.88;9.20;;;0.80;99.90;;;;;;5006508;28;20230;-87
2023/03/12 03:04:58;;;;;;;18.38;10.55;;;0.90;99.90;;;;;;5003646;28;20696;-86
2023/03/12 03:07:43;;;;;;;13.52;8.70;;;0.90;99.90;;;;;;5007440;28;20742;-87
2023/03/12 03:10:29;;;;;;;11.93;9.35;;;1.00;99.90;;;;;;5008736;28;20730;-86
2023/03/12 03:13:14;;;;;;;13.07;8.30;;;1.00;99.90;;;;;;5007939;28;20581;-86
2023/03/12 03:16:08;;;;;;;10.32;8.65;;;1.10;99.90;;;;;;5011540;28;20203;-86
2023/03/12 03:18:54;;;;;;;16.73;9.50;;;1.20;99.90;;;;;;5008344;28;20314;-86
2023/03/12 03:21:40;;;;;;;14.35;9.35;;;1.30;99.90;;;;;;5008026;28;20362;-87
2023/03/12 03:24:25;;;;;;;14.45;9.80;;;1.30;99.90;;;;;;5009532;28;20207;-86
2023/03/12 03:27:11;;;;;;;11.85;10.05;;;1.30;99.90;;;;;;5005800;28;20216;-87
2023/03/12 03:29:57;;;;;;;14.90;9.98;;;1.30;99.90;;;;;;5003426;28;20202;-86
2023/03/12 03:32:44;;;;;;;15.38;10.25;;;1.30;99.90;;;;;;5010703;28;20234;-87
2023/03/12 03:35:30;;;;;;;13.10;10.27;;;1.30;99.90;;;;;;5013366;28;20203;-87
2023/03/12 03:38:15;;;;;;;21.90;10.95;;;1.30;99.90;;;;;;5012607;28;20216;-87
2023/03/12 03:41:01;;;;;;;15.75;9.85;;;1.30;99.90;;;;;;5006203;28;20224;-86
2023/03/12 03:43:47;;;;;;;16.60;9.68;;;1.30;99.90;;;;;;5013920;28;20246;-86
2023/03/12 03:46:34;;;;;;;14.00;10.95;;;1.30;99.90;;;;;;5004482;28;20228;-85
2023/03/12 03:49:20;;;;;;;15.90;9.73;;;1.30;99.90;;;;;;5007852;28;20204;-84
2023/03/12 03:52:06;;;;;;;16.17;10.52;;;1.30;99.90;;;;;;5007455;28;20244;-87
2023/03/12 03:54:53;;;;;;;15.07;10.52;;;1.20;99.90;;;;;;5001574;28;20343;-86
2023/03/12 03:57:38;;;;;;;18.52;10.90;;;1.30;99.90;;;;;;5011162;28;20212;-85
2023/03/12 04:00:24;;;;;;;10.32;9.23;;;1.20;99.90;;;;;;5008004;28;20216;-87
2023/03/12 04:03:10;;;;;;;20.25;10.13;;;1.20;99.90;;;;;;5013428;28;20318;-86
2023/03/12 04:06:00;;;;;;;21.80;10.23;;;1.10;99.90;;;;;;5014022;28;20208;-85
2023/03/12 04:08:46;;;;;;;12.63;10.02;;;1.10;99.90;;;;;;5014226;28;20316;-84
2023/03/12 04:11:31;;;;;;;14.93;10.10;;;1.20;99.90;;;;;;5011743;28;20321;-85
2023/03/12 04:14:17;;;;;;;18.58;10.40;;;1.30;99.90;;;;;;5010570;28;20211;-84
2023/03/12 04:17:02;;;;;;;14.57;10.15;;;1.40;99.90;;;;;;5015182;28;20210;-84
2023/03/12 04:19:48;;;;;;;19.05;10.85;;;1.40;99.90;;;;;;5006251;28;20235;-85
2023/03/12 04:22:35;;;;;;;13.35;10.13;;;1.20;99.90;;;;;;5011370;28;20232;-85
2023/03/12 04:25:21;;;;;;;16.70;10.80;;;1.20;99.90;;;;;;5012268;28;20203;-84
2023/03/12 04:28:07;;;;;;;18.63;11.02;;;1.20;99.90;;;;;;5009782;28;20204;-85
2023/03/12 04:30:58;;;;;;;18.60;9.95;;;1.20;99.90;;;;;;5006679;28;20584;-84
2023/03/12 04:33:43;;;;;;;16.50;11.25;;;1.20;99.90;;;;;;5008728;28;20231;-84
2023/03/12 04:36:29;;;;;;;14.85;10.77;;;1.20;99.90;;;;;;5008554;28;20621;-84
2023/03/12 04:39:17;;;;;;;14.85;10.88;;;1.40;99.90;;;;;;5005795;28;20243;-84
2023/03/12 04:42:03;;;;;;;29.63;11.52;;;1.40;99.90;;;;;;5010309;28;20230;-84
2023/03/12 04:44:51;;;;;;;14.23;10.32;;;1.40;99.90;;;;;;5008347;28;20203;-84
2023/03/12 04:47:36;;;;;;;16.88;10.50;;;1.40;99.90;;;;;;5009775;28;20211;-85
2023/03/12 04:50:22;;;;;;;18.30;11.95;;;1.30;99.90;;;;;;5007335;28;20210;-84
2023/03/12 04:53:08;;;;;;;23.08;11.45;;;1.40;99.90;;;;;;5009316;28;20243;-85
2023/03/12 04:56:01;;;;;;;17.38;10.60;;;1.40;99.90;;;;;;5009078;28;20227;-85
2023/03/12 04:58:47;;;;;;;16.48;10.85;;;1.50;99.90;;;;;;5005879;28;20235;-85
2023/03/12 05:01:34;;;;;;;13.13;9.93;;;1.50;99.90;;;;;;5012690;28;20231;-85
2023/03/12 05:04:20;;;;;;;13.07;9.27;;;1.50;99.90;;;;;;5011403;28;20211;-85
2023/03/12 05:07:06;;;;;;;20.95;11.90;;;1.60;99.90;;;;;;5014061;28;20207;-84
2023/03/12 05:09:51;;;;;;;15.95;10.45;;;1.60;99.90;;;;;;5008648;28;20216;-85
2023/03/12 05:12:39;;;;;;;15.85;10.25;;;1.70;99.90;;;;;;5007736;28;20220;-85
2023/03/12 05:15:24;;;;;;;15.38;10.30;;;1.70;99.90;;;;;;5010884;28;20203;-84
2023/03/12 05:18:10;;;;;;;14.05;10.20;;;1.70;99.90;;;;;;5005740;28;20223;-85
2023/03/12 05:21:01;;;;;;;15.90;10.73;;;1.60;99.90;;;;;;5011169;28;20206;-85
2023/03/12 05:23:47;;;;;;;15.05;10.35;;;1.70;99.90;;;;;;5013553;28;20211;-85
2023/03/12 05:26:33;;;;;;;19.35;11.35;;;1.60;99.90;;;;;;5006393;28;20340;-85
2023/03/12 05:29:20;;;;;;;14.70;10.02;;;1.70;99.90;;;;;;5006131;28;20252;-85
2023/03/12 05:32:06;;;;;;;16.10;9.63;;;1.70;99.90;;;;;;5008670;28;20245;-84
2023/03/12 05:34:52;;;;;;;14.00;9.70;;;1.70;99.90;;;;;;5011123;28;20296;-84
2023/03/12 05:37:41;;;;;;;19.98;10.68;;;1.80;99.90;;;;;;5007256;28;20678;-85
2023/03/12 05:40:27;;;;;;;19.77;10.43;;;1.80;99.90;;;;;;5008310;28;20235;-85
2023/03/12 05:43:12;;;;;;;15.23;10.27;;;1.80;99.90;;;;;;5013337;28;20287;-85
2023/03/12 05:46:04;;;;;;;16.15;9.18;;;1.90;99.90;;;;;;5012183;28;20269;-85
2023/03/12 05:48:50;;;;;;;16.92;10.52;;;1.90;99.90;;;;;;5005232;28;20707;-86
2023/03/12 05:51:36;;;;;;;14.85;9.68;;;1.80;99.90;;;;;;5012660;28;20354;-85
2023/03/12 05:54:22;;;;;;;15.63;9.27;;;1.80;99.90;;;;;;5013171;28;20612;-85
2023/03/12 05:57:07;;;;;;;14.05;9.43;;;1.80;99.90;;;;;;5011228;28;20710;-84
2023/03/12 05:59:53;;;;;;;10.38;9.15;;;1.90;99.90;;;;;;5016824;28;20223;-85
2023/03/12 06:02:40;;;;;;;13.45;8.27;;;1.90;99.90;;;;;;5014037;28;20722;-84
2023/03/12 06:05:26;;;;;;;15.40;10.20;;;1.90;99.90;;;;;;5007676;28;20203;-85
2023/03/12 06:08:12;;;;;;;15.60;10.32;;;1.90;99.90;;;;;;5007261;28;20952;-85
2023/03/12 06:10:58;;;;;;;17.65;10.00;;;1.90;99.90;;;;;;5010530;28;20230;-85
2023/03/12 06:13:43;;;;;;;19.45;9.77;;;1.90;99.90;;;;;;5029271;23;20234;-72
2023/03/12 06:16:29;;;;;;;14.10;9.65;;;1.90;99.90;;;;;;5023218;28;20284;-72
2023/03/12 06:19:16;;;;;;;18.55;10.20;;;1.90;99.90;;;;;;5021862;28;20698;-72
2023/03/12 06:22:03;;;;;;;17.10;10.75;;;1.90;99.90;;;;;;5027901;28;20218;-72
2023/03/12 06:24:48;;;;;;;17.90;10.40;;;2.00;99.90;;;;;;5031375;28;20211;-72
2023/03/12 06:27:34;;;;;;;16.02;9.07;;;2.10;99.90;;;;;;5023007;28;20215;-72
2023/03/12 06:30:20;;;;;;;16.60;9.90;;;2.00;99.90;;;;;;5029110;28;20819;-71
2023/03/12 06:33:07;;;;;;;11.98;8.68;;;2.00;99.90;;;;;;5025965;28;20205;-71
2023/03/12 06:35:55;;;;;;;15.55;10.68;;;1.90;99.90;;;;;;5029365;28;20338;-72
2023/03/12 06:38:41;;;;;;;17.00;10.75;;;1.80;99.90;;;;;;5020284;28;20230;-72
2023/03/12 06:41:27;;;;;;;15.88;9.10;;;1.70;99.90;;;;;;5033446;28;20249;-72
2023/03/12 06:44:13;;;;;;;13.93;8.63;;;1.80;99.90;;;;;;5029607;28;20277;-72
2023/03/12 06:46:58;;;;;;;12.52;8.60;;;1.80;99.90;;;;;;5027537;28;20270;-72
2023/03/12 06:49:44;;;;;;;15.18;8.95;;;1.90;99.90;;;;;;5025382;28;20258;-71
2023/03/12 06:52:31;;;;;;;16.50;8.68;;;1.90;99.90;;;;;;5037160;28;20236;-72
2023/03/12 06:55:17;;;;;;;13.60;9.18;;;2.00;99.90;;;;;;5032464;28;20348;-72
2023/03/12 06:58:03;;;;;;;13.13;8.30;;;2.00;99.90;;;;;;5026231;28;20211;-72
2023/03/12 07:00:49;;;;;;;13.13;9.65;;;2.00;99.90;;;;;;5027184;28;20259;-72
2023/03/12 07:03:35;;;;;;;12.15;8.48;;;2.00;99.90;;;;;;5031880;28;20723;-72
2023/03/12 07:06:23;;;;;;;12.68;7.95;;;2.00;99.90;;;;;;5030410;28;20723;-72
2023/03/12 07:09:10;;;;;;;12.75;8.90;;;2.20;99.90;;;;;;5029304;28;20361;-72
2023/03/12 07:11:55;;;;;;;14.43;9.05;;;2.20;99.90;;;;;;5033076;28;20695;-72
2023/03/12 07:14:41;;;;;;;12.25;9.43;;;2.20;99.90;;;;;;5027888;28;20278;-72
2023/03/12 07:17:27;;;;;;;13.00;9.00;;;2.20;99.90;;;;;;5022354;28;20212;-72
2023/03/12 07:20:13;;;;;;;11.15;8.50;;;2.20;99.90;;;;;;5033816;28;20728;-72
2023/03/12 07:22:59;;;;;;;11.10;7.70;;;2.20;99.90;;;;;;5032989;28;20207;-72
2023/03/12 07:25:47;;;;;;;12.93;8.65;;;2.20;99.90;;;;;;5022215;28;20219;-72
2023/03/12 07:28:32;;;;;;;11.15;8.10;;;2.30;99.90;;;;;;5025424;28;20304;-72
2023/03/12 07:31:18;;;;;;;11.82;8.32;;;2.30;99.90;;;;;;5040162;28;20587;-72
2023/03/12 07:34:04;;;;;;;17.95;7.97;;;2.40;99.90;;;;;;5024256;28;20218;-71
2023/03/12 07:36:50;;;;;;;13.18;8.30;;;2.50;99.90;;;;;;5030240;28;20210;-72
2023/03/12 07:39:36;;;;;;;12.75;8.30;;;2.60;99.90;;;;;;5020992;28;20326;-72
2023/03/12 07:42:23;;;;;;;12.95;8.73;;;2.60;99.90;;;;;;5034305;28;20226;-72
2023/03/12 07:45:10;;;;;;;11.20;8.65;;;2.60;99.90;;;;;;5028830;28;20197;-72
2023/03/12 07:47:55;;;;;;;14.95;8.90;;;2.70;99.90;;;;;;5023959;28;20211;-72
2023/03/12 07:50:41;;;;;;;15.07;9.93;;;2.70;99.90;;;;;;5027912;28;20201;-72
2023/03/12 07:53:27;;;;;;;14.50;10.50;;;2.70;99.90;;;;;;5034136;28;20364;-72
2023/03/12 07:56:13;;;;;;;10.98;9.30;;;2.70;99.90;;;;;;5029261;28;20349;-72
2023/03/12 07:59:00;;;;;;;12.98;10.38;;;2.70;99.90;;;;;;5021646;28;20314;-72
2023/03/12 08:01:45;;;;;;;12.45;11.15;;;2.80;99.90;;;;;;5035860;28;20206;-71
2023/03/12 08:04:31;;;;;;;15.13;10.60;;;2.80;99.90;;;;;;5023954;28;20204;-72
2023/03/12 08:07:17;;;;;;;15.50;11.38;;;2.80;99.90;;;;;;5026698;28;20207;-72
2023/03/12 08:10:07;;;;;;;14.32;11.20;;;2.80;99.90;;;;;;5030581;28;20301;-71
2023/03/12 08:12:52;;;;;;;16.73;10.85;;;2.80;99.90;;;;;;5027049;28;20212;-72
2023/03/12 08:15:39;;;;;;;15.55;11.07;;;2.80;99.90;;;;;;5037202;28;20578;-72
2023/03/12 08:18:25;;;;;;;13.68;11.25;;;2.80;99.90;;;;;;5035512;28;20230;-72
2023/03/12 08:21:13;;;;;;;15.23;10.98;;;2.90;99.90;;;;;;5033434;28;20242;-72
2023/03/12 08:23:58;;;;;;;17.27;10.93;;;2.90;99.90;;;;;;5018875;28;20339;-72
2023/03/12 08:26:44;;;;;;;16.02;11.05;;;2.90;99.90;;;;;;5024902;28;20597;-72
2023/03/12 08:29:31;;;;;;;18.35;12.45;;;2.90;99.90;;;;;;5029893;28;20226;-72
2023/03/12 08:32:18;;;;;;;15.90;12.25;;;3.00;99.90;;;;;;5032480;28;20216;-72
2023/03/12 08:35:04;;;;;;;14.52;11.38;;;3.10;99.90;;;;;;5043797;28;20743;-72
2023/03/12 08:37:50;;;;;;;15.70;10.70;;;3.00;99.90;;;;;;5032497;28;20610;-72
2023/03/12 08:40:36;;;;;;;11.35;9.45;;;3.00;99.90;;;;;;5029875;28;20228;-72
2023/03/12 08:43:22;;;;;;;11.00;9.90;;;3.00;99.90;;;;;;5031499;28;20579;-71
2023/03/12 08:46:07;;;;;;;13.18;8.60;;;3.10;99.90;;;;;;5029745;28;20203;-72
2023/03/12 08:48:54;;;;;;;14.18;10.10;;;3.10;99.90;;;;;;5030559;28;20230;-72
2023/03/12 08:51:40;;;;;;;15.52;10.85;;;3.10;99.90;;;;;;5037378;28;20341;-72
2023/03/12 08:54:25;;;;;;;12.88;10.93;;;3.10;99.90;;;;;;5035497;28;20200;-71
2023/03/12 08:57:11;;;;;;;11.30;10.15;;;3.10;99.90;;;;;;5029910;28;20908;-71
2023/03/12 08:59:56;;;;;;;12.50;10.50;;;3.10;99.90;;;;;;5028149;28;20227;-71
2023/03/12 09:02:44;;;;;;;15.68;10.98;;;3.10;99.90;;;;;;5033907;28;20206;-71
2023/03/12 09:05:31;;;;;;;13.10;11.13;;;3.10;99.90;;;;;;5028743;28;20306;-71
2023/03/12 09:08:17;;;;;;;13.20;10.88;;;3.10;99.90;;;;;;5030905;28;20293;-71
2023/03/12 09:11:02;;;;;;;17.45;11.80;;;3.10;99.90;;;;;;5037202;28;20202;-71
2023/03/12 09:13:48;;;;;;;16.40;13.50;;;3.20;99.90;;;;;;5028537;28;20207;-72
2023/03/12 09:16:34;;;;;;;13.95;11.10;;;3.20;99.90;;;;;;5027133;28;20211;-72
2023/03/12 09:19:20;;;;;;;22.77;13.30;;;3.20;99.90;;;;;;5026709;28;20277;-72
2023/03/12 09:22:07;;;;;;;13.38;11.95;;;3.20;99.90;;;;;;5038256;28;20628;-72
2023/03/12 09:24:53;;;;;;;19.30;13.73;;;3.30;99.90;;;;;;5039354;28;20203;-72
2023/03/12 09:27:39;;;;;;;20.13;14.05;;;3.30;99.90;;;;;;5024436;28;20241;-71
2023/03/12 09:30:25;;;;;;;24.45;13.98;;;3.40;99.90;;;;;;5037510;28;20225;-71
2023/03/12 09:33:11;;;;;;;18.52;12.80;;;3.50;99.90;;;;;;5030468;28;20787;-72
2023/03/12 09:35:58;;;;;;;17.27;13.13;;;3.50;99.90;;;;;;5030746;28;20335;-71
2023/03/12 09:38:45;;;;;;;17.73;12.85;;;3.60;99.90;;;;;;5032641;28;20229;-71
2023/03/12 09:41:35;;;;;;;21.60;14.55;;;3.60;99.90;;;;;;5032878;28;20710;-71
2023/03/12 09:44:28;;;;;;;17.15;13.20;;;3.60;99.90;;;;;;5035284;28;20215;-71
2023/03/12 09:47:25;;;;;;;17.35;13.60;;;3.60;99.90;;;;;;5021311;28;20209;-72
2023/03/12 09:50:21;;;;;;;18.83;14.52;;;3.70;99.90;;;;;;5034305;28;20227;-71
2023/03/12 09:53:12;;;;;;;19.83;14.73;;;3.80;99.90;;;;;;5033737;28;20226;-72
2023/03/12 09:56:07;;;;;;;22.50;16.60;;;3.70;99.90;;;;;;5019585;28;20212;-71
2023/03/12 09:58:55;;;;;;;20.92;17.20;;;3.80;99.90;;;;;;5023982;28;20235;-71
2023/03/12 10:01:47;;;;;;;18.70;16.58;;;3.90;99.90;;;;;;5021694;28;20238;-71
2023/03/12 10:04:40;;;;;;;18.25;15.90;;;3.90;99.90;;;;;;5031285;28;20234;-71
2023/03/12 10:07:32;;;;;;;22.73;20.17;;;4.00;99.90;;;;;;5025116;28;20597;-72
2023/03/12 10:10:34;;;;;;;23.73;20.77;;;4.00;99.90;;;;;;5027618;28;20566;-70
2023/03/12 10:13:43;;;;;;;19.55;15.50;;;4.00;99.90;;;;;;5017866;28;20211;-71
2023/03/12 10:16:43;;;;;;;25.85;16.23;;;4.10;99.90;;;;;;5025505;28;20697;-71
2023/03/12 10:19:59;;;;;;;13.70;9.80;;;4.10;99.90;;;;;;5019073;28;20700;-71
2023/03/12 10:22:55;;;;;;;20.20;10.45;;;4.40;99.90;;;;;;5028952;28;20195;-71
2023/03/12 10:25:46;;;;;;;15.05;10.98;;;4.50;99.90;;;;;;5023141;28;20269;-71
2023/03/12 10:28:40;;;;;;;12.82;11.00;;;4.70;99.90;;;;;;5036884;28;20237;-71
2023/03/12 10:31:29;;;;;;;14.15;10.77;;;4.70;99.90;;;;;;5030681;28;20204;-71
2023/03/12 10:34:18;;;;;;;13.63;11.50;;;4.80;99.90;;;;;;5025974;28;20227;-71
2023/03/12 10:37:14;;;;;;;24.02;11.18;;;4.90;99.90;;;;;;5041147;28;20238;-71
2023/03/12 10:40:01;;;;;;;18.42;13.15;;;4.90;99.90;;;;;;5044030;28;20234;-71
2023/03/12 10:42:46;;;;;;;13.88;11.48;;;4.90;99.90;;;;;;5042049;28;20700;-71
2023/03/12 10:45:38;;;;;;;15.55;11.57;;;4.90;99.90;;;;;;5031760;28;20688;-71
2023/03/12 10:48:25;;;;;;;14.43;11.25;;;5.00;99.90;;;;;;5037618;28;20362;-71
2023/03/12 10:51:12;;;;;;;17.10;12.27;;;5.10;99.90;;;;;;5042150;28;20583;-70
2023/03/12 10:53:58;;;;;;;19.08;11.95;;;5.10;99.90;;;;;;5037627;28;20573;-71
2023/03/12 10:56:51;;;;;;;16.50;11.35;;;5.20;99.90;;;;;;5038415;28;20206;-71
2023/03/12 10:59:41;;;;;;;13.57;12.00;;;5.30;99.90;;;;;;5036947;28;20242;-71
2023/03/12 11:02:33;;;;;;;15.80;11.93;;;5.30;99.90;;;;;;5024807;28;20321;-71
2023/03/12 11:05:21;;;;;;;14.73;11.90;;;5.40;99.90;;;;;;5027952;28;20342;-71
2023/03/12 11:08:22;;;;;;;14.18;11.77;;;5.40;99.90;;;;;;5045079;28;20734;-71
2023/03/12 11:11:07;;;;;;;13.70;11.35;;;5.40;99.90;;;;;;5039542;28;20278;-71
2023/03/12 11:14:07;;;;;;;18.05;12.80;;;5.40;99.90;;;;;;5032062;28;20215;-71
2023/03/12 11:16:54;;;;;;;14.77;12.25;;;5.50;99.90;;;;;;5030902;28;20203;-71
2023/03/12 11:19:41;;;;;;;13.90;11.53;;;5.50;99.90;;;;;;5041455;28;20231;-71
2023/03/12 11:22:31;;;;;;;16.58;12.30;;;5.60;99.90;;;;;;5048495;28;20491;-71
2023/03/12 11:25:23;;;;;;;17.55;12.60;;;5.60;99.90;;;;;;5019345;28;20680;-71
2023/03/12 11:28:17;;;;;;;17.00;13.00;;;5.70;99.90;;;;;;5039680;28;20278;-71
2023/03/12 11:31:06;;;;;;;13.98;12.27;;;5.70;99.90;;;;;;5045399;28;20338;-71
2023/03/12 11:33:53;;;;;;;18.02;13.02;;;5.70;99.90;;;;;;5034679;28;20212;-71
2023/03/12 11:36:49;;;;;;;14.82;11.63;;;5.80;99.90;;;;;;5034673;28;20207;-71
2023/03/12 11:39:50;;;;;;;17.15;12.40;;;5.80;99.90;;;;;;5044731;28;20227;-71
2023/03/12 11:42:48;;;;;;;12.93;11.52;;;5.90;99.90;;;;;;5036547;28;20210;-71
2023/03/12 11:45:45;;;;;;;16.88;12.30;;;6.00;99.90;;;;;;5023161;28;20330;-71
2023/03/12 11:48:41;;;;;;;17.30;12.82;;;6.00;99.90;;;;;;5035150;28;20231;-71
2023/03/12 11:51:38;;;;;;;23.77;12.55;;;6.20;99.90;;;;;;5026778;28;20698;-71
2023/03/12 11:54:43;;;;;;;12.97;11.57;;;6.30;99.90;;;;;;5031337;28;20203;-71
2023/03/12 11:57:38;;;;;;;17.87;13.50;;;6.40;99.90;;;;;;5039724;28;20429;-71
2023/03/12 12:00:32;;;;;;;20.80;14.45;;;6.40;99.90;;;;;;5041811;28;20489;-71
2023/03/12 12:04:00;;;;;;;13.70;12.00;;;6.50;99.90;;;;;;5037660;28;20693;-71
2023/03/12 12:06:58;;;;;;;18.37;13.77;;;6.50;99.90;;;;;;5031101;28;21029;-71
2023/03/12 12:09:50;;;;;;;15.93;13.50;;;6.70;99.90;;;;;;5039714;28;20453;-71
2023/03/12 12:12:51;;;;;;;20.83;13.03;;;6.80;99.90;;;;;;5035924;28;20214;-71
2023/03/12 12:15:42;;;;;;;18.80;13.15;;;6.80;99.90;;;;;;5025322;28;20508;-72
2023/03/12 12:18:45;;;;;;;17.60;14.07;;;7.00;99.90;;;;;;5038364;28;20302;-71
2023/03/12 12:21:52;;;;;;;17.17;14.45;;;7.20;99.90;;;;;;5036596;28;20474;-72
2023/03/12 12:24:48;;;;;;;17.50;14.10;;;7.40;99.90;;;;;;5026103;28;20627;-71
2023/03/12 12:27:40;;;;;;;18.48;14.00;;;7.50;99.90;;;;;;5037191;28;21042;-72
2023/03/12 12:30:35;;;;;;;18.90;12.50;;;7.70;99.90;;;;;;5038643;28;20266;-72
2023/03/12 12:33:33;;;;;;;16.13;12.30;;;7.90;99.90;;;;;;5034805;28;20507;-72
2023/03/12 12:36:19;;;;;;;15.73;11.87;;;8.20;99.90;;;;;;5027861;28;20456;-72
2023/03/12 12:39:13;;;;;;;13.47;11.40;;;8.50;99.90;;;;;;5023650;28;20517;-73
2023/03/12 12:42:04;;;;;;;18.47;11.43;;;8.70;99.90;;;;;;5028963;28;20481;-71
2023/03/12 12:44:53;;;;;;;12.17;10.57;;;9.10;99.90;;;;;;5026101;28;20451;-71
2023/03/12 12:47:46;;;;;;;10.43;8.83;;;9.40;99.90;;;;;;5031009;28;20839;-72
2023/03/12 12:50:36;;;;;;;13.93;9.00;;;9.70;99.90;;;;;;5032595;28;20810;-72
2023/03/12 12:53:26;;;;;;;13.40;9.27;;;9.80;99.90;;;;;;5017868;28;20431;-73
2023/03/12 12:56:20;;;;;;;12.53;9.67;;;10.00;99.90;;;;;;5029990;28;20432;-72
2023/03/12 12:59:26;;;;;;;14.57;9.97;;;10.00;99.90;;;;;;5030450;28;20775;-72
2023/03/12 13:02:19;;;;;;;11.03;9.23;;;10.10;99.90;;;;;;5022251;28;20475;-72
2023/03/12 13:05:19;;;;;;;10.50;7.90;;;10.50;99.90;;;;;;5018072;28;20451;-72
2023/03/12 13:08:07;;;;;;;11.07;8.83;;;10.60;99.90;;;;;;5025546;28;20420;-72
2023/03/12 13:10:56;;;;;;;10.20;8.13;;;10.60;99.90;;;;;;5022123;28;21183;-73
2023/03/12 13:13:44;;;;;;;11.47;8.43;;;10.60;99.90;;;;;;5012368;28;20467;-72
2023/03/12 13:16:34;;;;;;;11.50;8.53;;;10.50;99.90;;;;;;5032979;28;20446;-72
2023/03/12 13:19:26;;;;;;;9.30;7.93;;;10.50;99.90;;;;;;5026001;28;20577;-73
2023/03/12 13:22:25;;;;;;;12.97;9.67;;;10.50;99.90;;;;;;5039831;28;20491;-72
2023/03/12 13:25:26;;;;;;;16.00;8.50;;;10.70;99.90;;;;;;5024269;28;20547;-72
2023/03/12 13:28:35;;;;;;;16.57;8.87;;;11.00;99.90;;;;;;5033511;28;20477;-72
2023/03/12 13:31:37;;;;;;;13.63;7.17;;;11.30;99.90;;;;;;5031297;28;20900;-73
2023/03/12 13:34:44;;;;;;;13.73;7.20;;;11.40;99.90;;;;;;5023951;28;20423;-72
2023/03/12 13:37:59;;;;;;;11.57;7.43;;;11.30;99.90;;;;;;5032197;28;20532;-72
2023/03/12 13:40:59;;;;;;;11.07;7.37;;;11.40;99.90;;;;;;5031998;28;20793;-73
2023/03/12 13:43:53;;;;;;;9.43;7.10;;;11.40;99.90;;;;;;5019618;28;20442;-73
2023/03/12 13:46:44;;;;;;;11.70;6.97;;;11.40;99.90;;;;;;5028667;28;20439;-73
2023/03/12 13:49:37;;;;;;;10.80;6.90;;;11.50;99.90;;;;;;5021165;28;20451;-72
2023/03/12 13:52:25;;;;;;;11.97;7.57;;;11.60;99.90;;;;;;5031535;28;20447;-72
2023/03/12 13:55:20;;;;;;;11.93;7.60;;;11.70;99.90;;;;;;5029249;28;20548;-72
2023/03/12 13:58:09;;;;;;;11.23;7.07;;;11.80;99.90;;;;;;5018321;28;20477;-72
2023/03/12 14:00:57;;;;;;;12.80;8.50;;;11.90;99.90;;;;;;5019669;28;20941;-73
2023/03/12 14:03:48;;;;;;;10.30;7.47;;;12.10;99.90;;;;;;5020018;28;21092;-72
2023/03/12 14:06:48;;;;;;;16.70;6.47;;;12.20;99.90;;;;;;5019061;28;20506;-72
2023/03/12 14:09:40;;;;;;;11.20;6.60;;;12.40;99.90;;;;;;5020148;28;20490;-72
2023/03/12 14:12:33;;;;;;;12.00;6.53;;;12.70;99.90;;;;;;5030226;28;20735;-72
2023/03/12 14:15:27;;;;;;;12.10;5.20;;;13.20;99.90;;;;;;5024297;28;20430;-72
2023/03/12 14:18:18;;;;;;;13.57;5.87;;;13.60;99.90;;;;;;5029301;28;20581;-72
2023/03/12 14:21:10;;;;;;;16.73;5.43;;;13.50;99.90;;;;;;5034318;28;20591;-72
2023/03/12 14:23:58;;;;;;;15.67;6.10;;;13.10;99.90;;;;;;5021942;28;20509;-72
2023/03/12 14:26:47;;;;;;;13.73;5.13;;;12.80;99.90;;;;;;5039098;28;20431;-73
2023/03/12 14:29:37;;;;;;;13.23;5.80;;;12.70;99.90;;;;;;5029803;28;20473;-72
2023/03/12 14:32:27;;;;;;;8.93;5.97;;;12.60;99.90;;;;;;5034522;28;20601;-72